Pagrindinis puslapis
METAR-TAF:

METAR-TAF

Oro uostai :

Lake Charles, Luiziana, Jungtinės Amerikos Valstijos

platuma: 30-07-34N, ilguma: 093-13-24W, Aukštis: 5 m

Dabartinis oras

Ataskaita buvo paskelbta 18 minutes, ne 06:53 UTC
Vėjas 4 kt iš Vakarų/Pietvakarių
Temperatūra 20°C
Drėgmė 94%
Slėgis 1012 hPa
Matomumas: 16.1 km
Giedras dangus

METAR: KLCH 270653Z AUTO 25004KT 10SM CLR 20/19 A2989 RMK AO2 SLP127 T02000189

Laikas: 02:11 (07:11 UTC)

Prognozė

Ataskaita buvo paskelbta 1 valandą ir 51 minutes, ne 05:20 UTC
Prognozė galioja nuo 27 metu 06 UTC su 28 metu 06 UTC
Vėjas 3 kt nuo kintamojo kryptimis
Matomumas: 10 km
Mažai debesys ne aukštis 5000 ft
Išsisklaidę debesys ne aukštis 10000 ft
Nuo 27 metu 1500 UTC
Vėjas 7 kt iš Vakarų
Matomumas: 10 km
Išsisklaidę debesys ne aukštis 4000 ft
Išsisklaidę debesys ne aukštis 10000 ft
Nuo 28 metu 0100 UTC
Vėjas 3 kt iš Vakarų/Pietvakarių
Matomumas: 10 km
Išsisklaidę debesys ne aukštis 4000 ft

TAF: KLCH 270520Z 2706/2806 VRB03KT P6SM FEW050 SCT100 FM271500 28007KT P6SM SCT040 SCT100 FM280100 24003KT P6SM SCT040

Orai ataskaitas ir orų prognozės (METAR, TAF).

turimą stotys yra geltonos ir raudonos taškus žemėlapyje.

Perkelti pele per norėdami pamatyti stoties vardą.

Tada spustelėkite, norėdami matyti oro stebėjimo ir prognozės.

Norėdami pakeisti žemėlapį: spustelėkite ant žalios mygtukų su juodo kryžiaus žemyn,; žalią mygtuką su brūkšneliu, jei norite nutolinti; arba žalių rodyklių gretimoms žemėlapius.


METAR-TAF: